Vernicos Master — SVA2352 — position and weather

sailwx.info

Track history (hours):
 
Tides and Currents Weather Stations Pressure Air Temp Water Temp Dewpoint Dewpoint Depression Visibility Wind Speed Wind Dir Waves Ship Positions

Vernicos Master

Last reported at 2016-Sep-26 08:33 UTC. Time now 2016-Sep-26 10:33 UTC.
Position N 40°38' E 022°56'.

Length 28 m; draft 3.8 m.

Type: Tug. MMSI: 240917000.

Date/timePositionNaut miles runAvg speedWind from/ knotsBaromVisibWave heightAir tempDewpointWater temp
2016-Sep-26 08:33N 40°38' E 022°56'2 0.3
2016-Sep-26 02:33N 40°37' E 022°54'0 0.0
2016-Sep-26 01:33N 40°37' E 022°54'0 0.0
2016-Sep-26 00:33N 40°37' E 022°54'0 0.0
2016-Sep-25 21:33N 40°37' E 022°54'2 0.3
2016-Sep-25 14:34N 40°38' E 022°56'0 0.0
2016-Sep-25 12:34N 40°38' E 022°56'1 0.0
2016-Sep-24 10:33N 40°38' E 022°54'1 0.6
2016-Sep-24 09:33N 40°38' E 022°54'2 0.3
2016-Sep-24 03:33N 40°38' E 022°56'0 0.0
2016-Sep-24 02:33N 40°38' E 022°56'0 0.0
2016-Sep-23 09:33N 40°38' E 022°55'0 0.1
2016-Sep-23 06:33N 40°38' E 022°56'2 0.1
2016-Sep-22 00:33N 40°38' E 022°53'0 0.0
2016-Sep-21 23:33N 40°38' E 022°53'0 0.0
2016-Sep-21 22:33N 40°38' E 022°53'0 0.0
2016-Sep-21 19:33N 40°38' E 022°53'2 0.2
2016-Sep-21 09:33N 40°38' E 022°56'0 0.0
2016-Sep-21 08:33N 40°38' E 022°56'0 0.0
2016-Sep-21 05:33N 40°38' E 022°56'0 0.0
2016-Sep-21 03:34N 40°38' E 022°56'0 0.0
2016-Sep-21 02:34N 40°38' E 022°56'0 0.0
2016-Sep-20 17:33N 40°38' E 022°56'0 0.0
2016-Sep-20 14:34N 40°38' E 022°56'0 0.0
2016-Sep-20 13:33N 40°38' E 022°56'0 0.0
2016-Sep-20 10:34N 40°38' E 022°56'2 0.8
2016-Sep-20 08:34N 40°38' E 022°54'2 1.7
2016-Sep-20 07:33N 40°37' E 022°55'2 1.5
2016-Sep-20 06:33N 40°38' E 022°54'2 0.4
2016-Sep-20 02:33N 40°38' E 022°56'0 0.0
2016-Sep-19 13:26N 40°38' E 022°56'2 2.0
2016-Sep-19 12:33N 40°38' E 022°53'0 0.5
2016-Sep-19 11:33N 40°38' E 022°53'0 0.0
2016-Sep-19 09:33N 40°38' E 022°53'0 0.0
2016-Sep-19 07:33N 40°38' E 022°53'0 0.0
2016-Sep-19 06:33N 40°38' E 022°53'0 0.0
2016-Sep-19 03:33N 40°38' E 022°53'2 2.0
2016-Sep-19 02:32N 40°38' E 022°56'2 0.2
2016-Sep-18 15:33N 40°38' E 022°53'0 0.0
2016-Sep-18 14:33N 40°38' E 022°53'0 0.0
2016-Sep-18 10:33N 40°38' E 022°53'0 0.0
2016-Sep-18 09:33N 40°38' E 022°53'2 0.0
2016-Sep-16 17:33N 40°38' E 022°56'1 0.3
2016-Sep-16 15:33N 40°38' E 022°55'1 0.2
2016-Sep-16 12:33N 40°38' E 022°56'0 0.0
2016-Sep-16 09:33N 40°38' E 022°56'  
Track history (hours):
 
Tides and Currents Weather Stations Pressure Air Temp Water Temp Dewpoint Dewpoint Depression Visibility Wind Speed Wind Dir Waves Ship Positions

Vernicos Master

Last reported at 2016-Sep-26 08:33 UTC. Time now 2016-Sep-26 10:33 UTC.
Position N 40°38' E 022°56'.

Length 28 m; draft 3.8 m.

Type: Tug. MMSI: 240917000.

Date/timePositionNaut miles runAvg speedWind from/ knotsBaromVisibWave heightAir tempDewpointWater temp
2016-Sep-26 08:33N 40°38' E 022°56'2 0.3
2016-Sep-26 02:33N 40°37' E 022°54'0 0.0
2016-Sep-26 01:33N 40°37' E 022°54'0 0.0
2016-Sep-26 00:33N 40°37' E 022°54'0 0.0
2016-Sep-25 21:33N 40°37' E 022°54'2 0.3
2016-Sep-25 14:34N 40°38' E 022°56'0 0.0
2016-Sep-25 12:34N 40°38' E 022°56'1 0.0
2016-Sep-24 10:33N 40°38' E 022°54'1 0.6
2016-Sep-24 09:33N 40°38' E 022°54'2 0.3
2016-Sep-24 03:33N 40°38' E 022°56'0 0.0
2016-Sep-24 02:33N 40°38' E 022°56'0 0.0
2016-Sep-23 09:33N 40°38' E 022°55'0 0.1
2016-Sep-23 06:33N 40°38' E 022°56'2 0.1
2016-Sep-22 00:33N 40°38' E 022°53'0 0.0
2016-Sep-21 23:33N 40°38' E 022°53'0 0.0
2016-Sep-21 22:33N 40°38' E 022°53'0 0.0
2016-Sep-21 19:33N 40°38' E 022°53'2 0.2
2016-Sep-21 09:33N 40°38' E 022°56'0 0.0
2016-Sep-21 08:33N 40°38' E 022°56'0 0.0
2016-Sep-21 05:33N 40°38' E 022°56'0 0.0
2016-Sep-21 03:34N 40°38' E 022°56'0 0.0
2016-Sep-21 02:34N 40°38' E 022°56'0 0.0
2016-Sep-20 17:33N 40°38' E 022°56'0 0.0
2016-Sep-20 14:34N 40°38' E 022°56'0 0.0
2016-Sep-20 13:33N 40°38' E 022°56'0 0.0
2016-Sep-20 10:34N 40°38' E 022°56'2 0.8
2016-Sep-20 08:34N 40°38' E 022°54'2 1.7
2016-Sep-20 07:33N 40°37' E 022°55'2 1.5
2016-Sep-20 06:33N 40°38' E 022°54'2 0.4
2016-Sep-20 02:33N 40°38' E 022°56'0 0.0
2016-Sep-19 13:26N 40°38' E 022°56'2 2.0
2016-Sep-19 12:33N 40°38' E 022°53'0 0.5
2016-Sep-19 11:33N 40°38' E 022°53'0 0.0
2016-Sep-19 09:33N 40°38' E 022°53'0 0.0
2016-Sep-19 07:33N 40°38' E 022°53'0 0.0
2016-Sep-19 06:33N 40°38' E 022°53'0 0.0
2016-Sep-19 03:33N 40°38' E 022°53'2 2.0
2016-Sep-19 02:32N 40°38' E 022°56'2 0.2
2016-Sep-18 15:33N 40°38' E 022°53'0 0.0
2016-Sep-18 14:33N 40°38' E 022°53'0 0.0
2016-Sep-18 10:33N 40°38' E 022°53'0 0.0
2016-Sep-18 09:33N 40°38' E 022°53'2 0.0
2016-Sep-16 17:33N 40°38' E 022°56'1 0.3
2016-Sep-16 15:33N 40°38' E 022°55'1 0.2
2016-Sep-16 12:33N 40°38' E 022°56'0 0.0
2016-Sep-16 09:33N 40°38' E 022°56'  

Dump ship's entire track history